createdAt,value
2023-04-10T00:00:32.105Z,991.8
2023-04-10T00:04:35.413Z,991.9
2023-04-10T00:08:38.731Z,991.9
2023-04-10T00:10:40.146Z,992
2023-04-10T00:14:42.935Z,991.8
2023-04-10T00:16:44.551Z,991.9
2023-04-10T00:20:47.956Z,991.9
2023-04-10T00:22:49.270Z,991.9
2023-04-10T00:24:50.894Z,991.8
2023-04-10T00:26:52.008Z,991.8
2023-04-10T00:30:55.195Z,991.7
2023-04-10T00:32:56.748Z,991.7
2023-04-10T00:36:59.291Z,991.6
2023-04-10T00:41:01.678Z,991.7
2023-04-10T00:43:02.770Z,991.6
2023-04-10T00:47:06.614Z,991.7
2023-04-10T00:51:09.442Z,991.7
2023-04-10T00:53:11.324Z,991.6
2023-04-10T00:57:14.801Z,991.6
2023-04-10T00:59:16.255Z,991.7
2023-04-10T01:03:19.688Z,991.6
2023-04-10T01:07:22.481Z,991.7
2023-04-10T01:09:23.560Z,991.7
2023-04-10T01:13:27.248Z,991.6
2023-04-10T01:15:29.071Z,991.7
2023-04-10T01:19:31.923Z,991.6
2023-04-10T01:23:35.373Z,991.7
2023-04-10T01:25:37.065Z,991.6
2023-04-10T01:29:39.776Z,991.7
2023-04-10T01:33:42.945Z,991.7
2023-04-10T01:35:44.951Z,991.7
2023-04-10T01:39:47.674Z,991.8
2023-04-10T01:41:48.734Z,991.7
2023-04-10T01:45:52.326Z,991.8
2023-04-10T01:49:54.622Z,991.9
2023-04-10T01:51:56.114Z,991.9
2023-04-10T01:55:58.650Z,991.9
2023-04-10T01:58:00.493Z,991.9
2023-04-10T02:02:02.962Z,991.8
2023-04-10T02:06:06.106Z,991.9
2023-04-10T02:08:07.941Z,991.8
2023-04-10T02:12:10.814Z,991.8
2023-04-10T02:16:14.451Z,991.7
2023-04-10T02:18:15.602Z,991.7
2023-04-10T02:22:18.044Z,991.5
2023-04-10T02:24:19.747Z,991.6
2023-04-10T02:28:22.937Z,991.6
2023-04-10T02:32:26.533Z,991.6
2023-04-10T02:34:28.529Z,991.6
2023-04-10T02:38:31.829Z,991.7
2023-04-10T02:40:33.196Z,991.6
2023-04-10T02:43:18.236Z,991.6
2023-04-10T02:45:19.361Z,991.6
2023-04-10T02:49:22.430Z,991.6
2023-04-10T02:53:25.302Z,991.6
2023-04-10T02:55:26.370Z,991.6
2023-04-10T02:59:29.388Z,991.6
2023-04-10T03:01:30.805Z,991.6
2023-04-10T03:03:32.938Z,991.6
2023-04-10T03:05:34.528Z,991.6
2023-04-10T03:09:36.909Z,991.6
2023-04-10T03:11:38.214Z,991.6
2023-04-10T03:13:39.962Z,991.6
2023-04-10T03:15:41.472Z,991.6
2023-04-10T03:17:42.754Z,991.6
2023-04-10T03:21:45.918Z,991.6
2023-04-10T03:23:47.728Z,991.6
2023-04-10T03:25:49.471Z,991.6
2023-04-10T03:27:51.208Z,991.5
2023-04-10T03:31:54.303Z,991.5
2023-04-10T03:37:59.247Z,991.5
2023-04-10T03:42:02.705Z,991.4
2023-04-10T03:44:04.009Z,991.5
2023-04-10T03:46:05.693Z,991.4
2023-04-10T03:48:07.852Z,991.4
2023-04-10T03:52:10.254Z,991.4
2023-04-10T03:54:12.075Z,991.3
2023-04-10T03:56:13.675Z,991.3
2023-04-10T03:58:15.017Z,991.4
2023-04-10T04:00:16.408Z,991.3
2023-04-10T04:04:20.323Z,991.4
2023-04-10T04:08:23.426Z,991.4
2023-04-10T04:10:25.382Z,991.4
2023-04-10T04:14:27.925Z,991.4
2023-04-10T04:20:32.550Z,991.5
2023-04-10T04:24:35.019Z,991.5
2023-04-10T04:26:36.387Z,991.4
2023-04-10T04:30:39.727Z,991.5
2023-04-10T04:34:42.532Z,991.5
2023-04-10T04:36:43.646Z,991.4
2023-04-10T04:40:46.880Z,991.5
2023-04-10T04:42:48.085Z,991.6
2023-04-10T04:46:51.647Z,991.6
2023-04-10T04:50:54.859Z,991.6
2023-04-10T04:52:56.230Z,991.5
2023-04-10T04:56:59.928Z,991.6
2023-04-10T04:59:01.289Z,991.6
2023-04-10T05:03:04.120Z,991.4
2023-04-10T05:07:07.044Z,991.4
2023-04-10T05:09:08.182Z,991.4
2023-04-10T05:13:11.121Z,991.3
2023-04-10T05:17:13.328Z,991.4
2023-04-10T05:19:14.809Z,991.3
2023-04-10T05:23:17.842Z,991.3
2023-04-10T05:25:19.766Z,991.3
2023-04-10T05:29:22.561Z,991.2
2023-04-10T05:33:25.702Z,991.3
2023-04-10T05:35:27.342Z,991.3
2023-04-10T05:39:30.655Z,991.2
2023-04-10T05:41:32.130Z,991.4
2023-04-10T05:45:35.440Z,991.3
2023-04-10T05:49:37.722Z,991.5
2023-04-10T05:51:39.216Z,991.4
2023-04-10T05:55:41.999Z,991.4
2023-04-10T05:59:44.825Z,991.4
2023-04-10T06:01:46.259Z,991.3
2023-04-10T06:05:49.019Z,991.3
2023-04-10T06:07:50.881Z,991.4
2023-04-10T06:11:53.559Z,991.3
2023-04-10T06:15:56.067Z,991.5
2023-04-10T06:17:57.316Z,991.4
2023-04-10T06:22:00.688Z,991.3
2023-04-10T06:24:02.280Z,991.3
2023-04-10T06:28:05.325Z,991.2
2023-04-10T06:32:08.364Z,991.3
2023-04-10T06:34:09.858Z,991.2
2023-04-10T06:38:12.276Z,991.2
2023-04-10T06:42:14.533Z,991.2
2023-04-10T06:44:15.744Z,991.2
2023-04-10T06:48:18.795Z,991.1
2023-04-10T06:50:20.449Z,991.1
2023-04-10T06:52:22.062Z,991.1
2023-04-10T06:54:22.989Z,991.1
2023-04-10T06:58:26.333Z,991.1
2023-04-10T07:00:27.548Z,991.1
2023-04-10T07:04:30.977Z,991.1
2023-04-10T07:06:31.910Z,991.1
2023-04-10T07:10:34.351Z,991
2023-04-10T07:12:35.759Z,990.9
2023-04-10T07:14:38.056Z,991
2023-04-10T07:16:39.109Z,990.9
2023-04-10T07:20:42.119Z,990.9
2023-04-10T07:26:46.194Z,990.9
2023-04-10T07:30:48.844Z,990.9
2023-04-10T07:32:50.127Z,990.8
2023-04-10T07:36:53.054Z,990.8
2023-04-10T07:40:56.468Z,990.9
2023-04-10T07:42:57.819Z,990.7
2023-04-10T07:46:59.957Z,990.8
2023-04-10T07:49:02.331Z,990.8
2023-04-10T07:53:04.277Z,990.8
2023-04-10T07:57:07.289Z,990.7
2023-04-10T07:59:08.978Z,990.8
2023-04-10T08:03:12.400Z,990.8
2023-04-10T08:05:13.517Z,990.8
2023-04-10T08:09:16.499Z,990.8
2023-04-10T08:13:19.247Z,990.8
2023-04-10T08:15:20.114Z,990.8
2023-04-10T08:19:22.864Z,990.8
2023-04-10T08:23:25.621Z,990.7
2023-04-10T08:25:27.106Z,990.7
2023-04-10T08:29:30.191Z,990.6
2023-04-10T08:31:31.660Z,990.7
2023-04-10T08:35:34.468Z,990.6
2023-04-10T08:39:37.984Z,990.6
2023-04-10T08:41:39.338Z,990.6
2023-04-10T08:45:41.725Z,990.5
2023-04-10T08:47:42.529Z,990.5
2023-04-10T08:51:47.272Z,990.4
2023-04-10T08:55:47.988Z,990.6
2023-04-10T08:58:00.289Z,990.5
2023-04-10T09:01:52.054Z,990.4
2023-04-10T09:05:55.121Z,990.4
2023-04-10T09:07:56.074Z,990.3
2023-04-10T09:11:58.804Z,990.3
2023-04-10T09:13:59.863Z,990.3
2023-04-10T09:18:02.453Z,990.2
2023-04-10T09:22:05.325Z,990.3
2023-04-10T09:24:06.276Z,990.3
2023-04-10T09:28:52.859Z,990.1
2023-04-10T09:32:55.968Z,990.2
2023-04-10T09:34:57.364Z,990.2
2023-04-10T09:38:59.387Z,990.1
2023-04-10T09:45:02.902Z,990
2023-04-10T09:49:06.084Z,989.9
2023-04-10T09:51:07.519Z,990
2023-04-10T09:55:10.409Z,990
2023-04-10T09:59:13.503Z,989.8
2023-04-10T10:01:14.808Z,989.7
2023-04-10T10:05:17.705Z,989.7
2023-04-10T10:07:18.978Z,989.8
2023-04-10T10:11:21.610Z,989.7
2023-04-10T10:15:24.620Z,989.5
2023-04-10T10:17:25.580Z,989.6
2023-04-10T10:21:28.293Z,989.5
2023-04-10T10:23:29.671Z,989.5
2023-04-10T10:25:31.205Z,989.4
2023-04-10T10:27:32.634Z,989.4
2023-04-10T10:31:35.224Z,989.3
2023-04-10T10:33:36.737Z,989.3
2023-04-10T10:35:38.465Z,989.2
2023-04-10T10:37:39.462Z,989.1
2023-04-10T10:39:41.036Z,989.1
2023-04-10T10:43:43.183Z,989.1
2023-04-10T10:45:44.887Z,989.1
2023-04-10T10:47:46.549Z,989.1
2023-04-10T10:49:48.576Z,989.1
2023-04-10T10:53:50.574Z,989.1
2023-04-10T10:55:51.812Z,989.1
2023-04-10T10:59:54.520Z,989
2023-04-10T11:03:57.443Z,989.1
2023-04-10T11:05:58.153Z,988.9
2023-04-10T11:10:00.331Z,988.9
2023-04-10T11:14:02.062Z,988.6
2023-04-10T11:16:03.756Z,988.8
2023-04-10T11:20:06.320Z,988.7
2023-04-10T11:22:07.663Z,988.7
2023-04-10T11:26:09.602Z,988.6
2023-04-10T11:30:12.473Z,988.5
2023-04-10T11:32:13.784Z,988.6
2023-04-10T11:36:16.626Z,988.6
2023-04-10T11:38:18.456Z,988.5
2023-04-10T11:42:21.046Z,988.5
2023-04-10T11:44:22.220Z,988.4
2023-04-10T11:46:23.878Z,988.3
2023-04-10T11:48:25.810Z,988.3
2023-04-10T11:52:28.027Z,988.4
2023-04-10T11:56:30.348Z,988.3
2023-04-10T11:58:31.412Z,988.4
2023-04-10T12:02:34.340Z,988.2
2023-04-10T12:04:35.588Z,988.2
2023-04-10T12:06:36.768Z,988.2
2023-04-10T12:08:38.070Z,988.3
2023-04-10T12:12:40.213Z,988.1
2023-04-10T12:14:41.781Z,987.9
2023-04-10T12:16:43.449Z,988.1
2023-04-10T12:18:44.682Z,988.1
2023-04-10T12:20:46.194Z,988.1
2023-04-10T12:24:48.819Z,988
2023-04-10T12:28:51.812Z,987.9
2023-04-10T12:30:52.702Z,987.8
2023-04-10T12:34:55.509Z,987.7
2023-04-10T12:36:56.634Z,987.6
2023-04-10T12:40:58.995Z,987.6
2023-04-10T12:45:01.332Z,987.6
2023-04-10T12:47:02.471Z,987.5
2023-04-10T12:51:05.590Z,987.4
2023-04-10T12:55:07.901Z,987.4
2023-04-10T12:57:08.743Z,987.5
2023-04-10T13:01:11.433Z,987.3
2023-04-10T13:03:12.803Z,987.3
2023-04-10T13:07:14.869Z,987.3
2023-04-10T13:09:25.392Z,987.2
2023-04-10T13:11:17.391Z,987.1
2023-04-10T13:13:18.595Z,987
2023-04-10T13:17:21.271Z,986.9
2023-04-10T13:19:22.809Z,987
2023-04-10T13:23:24.917Z,986.9
2023-04-10T13:27:28.280Z,986.9
2023-04-10T13:29:30.070Z,986.9
2023-04-10T13:33:33.530Z,986.8
2023-04-10T13:37:36.600Z,986.7
2023-04-10T13:39:38.111Z,986.8
2023-04-10T13:43:40.325Z,986.7
2023-04-10T13:45:41.427Z,986.7
2023-04-10T13:49:43.650Z,986.8
2023-04-10T13:53:48.136Z,986.6
2023-04-10T13:55:49.921Z,986.6
2023-04-10T13:59:52.033Z,986.6
2023-04-10T14:01:53.693Z,986.5
2023-04-10T14:05:56.302Z,986.5
2023-04-10T14:09:59.872Z,986.4
2023-04-10T14:12:01.502Z,986.5
2023-04-10T14:16:04.431Z,986.4
2023-04-10T14:20:06.968Z,986.4
2023-04-10T14:22:08.405Z,986.4
2023-04-10T14:26:11.295Z,986.3
2023-04-10T14:28:12.542Z,986.4
2023-04-10T14:30:14.219Z,986.3
2023-04-10T14:32:15.300Z,986.3
2023-04-10T14:36:17.373Z,986.2
2023-04-10T14:38:18.588Z,986.2
2023-04-10T14:40:19.754Z,986.2
2023-04-10T14:42:21.480Z,986.1
2023-04-10T14:44:22.852Z,986.1
2023-04-10T14:48:25.363Z,985.9
2023-04-10T14:50:26.453Z,986
2023-04-10T14:52:27.321Z,986
2023-04-10T14:54:28.488Z,986
2023-04-10T14:58:31.678Z,985.9
2023-04-10T15:00:34.019Z,985.9
2023-04-10T15:04:37.267Z,985.8
2023-04-10T15:08:39.910Z,985.8
2023-04-10T15:10:40.880Z,985.7
2023-04-10T15:14:43.909Z,985.7
2023-04-10T15:18:46.810Z,985.7
2023-04-10T15:20:47.763Z,985.7
2023-04-10T15:24:51.023Z,985.6
2023-04-10T15:26:51.325Z,985.6
2023-04-10T15:30:54.680Z,985.5
2023-04-10T15:34:57.211Z,985.4
2023-04-10T15:36:58.116Z,985.4
2023-04-10T15:41:00.652Z,985.3
2023-04-10T15:43:02.015Z,985.4
2023-04-10T15:47:05.173Z,985.2
2023-04-10T15:51:08.110Z,985.2
2023-04-10T15:53:09.331Z,985.2
2023-04-10T15:57:12.963Z,985.2
2023-04-10T16:01:15.803Z,985.1
2023-04-10T16:03:17.486Z,985
2023-04-10T16:07:19.688Z,985
2023-04-10T16:09:25.162Z,985
2023-04-10T16:14:07.799Z,984.9
2023-04-10T16:18:10.986Z,984.9
2023-04-10T16:20:12.111Z,984.9
2023-04-10T16:24:14.853Z,984.8
2023-04-10T16:26:15.752Z,984.8
2023-04-10T16:28:17.447Z,984.8
2023-04-10T16:30:18.906Z,984.8
2023-04-10T16:34:21.369Z,984.7
2023-04-10T16:36:22.959Z,984.7
2023-04-10T16:40:25.664Z,984.6
2023-04-10T16:44:28.437Z,984.5
2023-04-10T16:46:30.250Z,984.4
2023-04-10T16:50:32.749Z,984.3
2023-04-10T16:54:35.609Z,984.2
2023-04-10T16:56:37.122Z,984.1
2023-04-10T17:00:39.825Z,984
2023-04-10T17:02:40.896Z,984
2023-04-10T17:06:44.267Z,983.9
2023-04-10T17:10:46.738Z,983.9
2023-04-10T17:12:48.311Z,984
2023-04-10T17:16:50.802Z,984.1
2023-04-10T17:18:52.134Z,984
2023-04-10T17:22:54.859Z,984.1
2023-04-10T17:26:57.851Z,984.1
2023-04-10T17:28:58.914Z,984
2023-04-10T17:33:01.555Z,983.9
2023-04-10T17:37:04.459Z,983.9
2023-04-10T17:39:05.820Z,983.8
2023-04-10T17:43:08.827Z,983.8
2023-04-10T17:45:09.721Z,983.8
2023-04-10T17:49:11.755Z,983.7
2023-04-10T17:53:14.417Z,983.5
2023-04-10T17:55:16.312Z,983.6
2023-04-10T17:59:18.866Z,983.6
2023-04-10T18:01:20.599Z,983.5
2023-04-10T18:05:23.270Z,983.5
2023-04-10T18:09:26.045Z,983.5
2023-04-10T18:11:27.546Z,983.4
2023-04-10T18:15:29.904Z,983.5
2023-04-10T18:19:32.355Z,983.4
2023-04-10T18:21:33.836Z,983.4
2023-04-10T18:25:36.474Z,983.4
2023-04-10T18:27:38.192Z,983.2
2023-04-10T18:29:39.931Z,983.2
2023-04-10T18:31:40.956Z,983.2
2023-04-10T18:35:43.653Z,983.2
2023-04-10T18:37:44.868Z,983.2
2023-04-10T18:41:47.505Z,983.2
2023-04-10T18:43:57.745Z,983.1
2023-04-10T18:47:51.710Z,983.3
2023-04-10T18:51:53.895Z,983.4
2023-04-10T18:53:55.732Z,983.3
2023-04-10T18:57:58.074Z,983.4
2023-04-10T18:59:59.527Z,983.4
2023-04-10T19:04:02.418Z,983.3
2023-04-10T19:08:05.659Z,983.2
2023-04-10T19:10:07.418Z,983.3
2023-04-10T19:14:10.472Z,983.4
2023-04-10T19:18:14.130Z,983.3
2023-04-10T19:20:14.245Z,983.4
2023-04-10T19:24:17.043Z,983.3
2023-04-10T19:26:17.991Z,983.1
2023-04-10T19:30:21.044Z,983.2
2023-04-10T19:34:23.797Z,983.2
2023-04-10T19:36:25.315Z,983.3
2023-04-10T19:40:27.432Z,983.3
2023-04-10T19:42:29.172Z,983.3
2023-04-10T19:46:31.928Z,983.3
2023-04-10T19:50:35.112Z,983.2
2023-04-10T19:52:36.313Z,983.1
2023-04-10T19:56:39.748Z,983
2023-04-10T20:00:42.605Z,982.9
2023-04-10T20:02:43.658Z,983
2023-04-10T20:06:46.528Z,983
2023-04-10T20:08:47.697Z,983
2023-04-10T20:12:50.611Z,983
2023-04-10T20:16:53.159Z,982.9
2023-04-10T20:18:55.249Z,983
2023-04-10T20:22:57.829Z,983
2023-04-10T20:24:59.215Z,983
2023-04-10T20:29:02.347Z,982.8
2023-04-10T20:33:04.985Z,982.7
2023-04-10T20:35:06.789Z,982.7
2023-04-10T20:39:09.040Z,982.8
2023-04-10T20:43:12.358Z,982.8
2023-04-10T20:45:13.297Z,982.8
2023-04-10T20:49:16.988Z,982.6
2023-04-10T20:51:18.979Z,982.6
2023-04-10T20:53:20.592Z,982.5
2023-04-10T20:55:21.753Z,982.6
2023-04-10T20:59:24.343Z,982.6
2023-04-10T21:01:26.220Z,982.5
2023-04-10T21:03:28.035Z,982.3
2023-04-10T21:05:29.429Z,982.4
2023-04-10T21:07:31.287Z,982.3
2023-04-10T21:11:33.785Z,982.3
2023-04-10T21:13:36.526Z,982.3
2023-04-10T21:15:36.280Z,982.2
2023-04-10T21:17:37.205Z,982.3
2023-04-10T21:21:40.209Z,982.3
2023-04-10T21:23:41.890Z,982.1
2023-04-10T21:27:44.770Z,982.1
2023-04-10T21:31:47.890Z,982.2
2023-04-10T21:33:48.013Z,982.2
2023-04-10T21:37:50.565Z,982.1
2023-04-10T21:41:52.821Z,982.2
2023-04-10T21:43:54.706Z,982.2
2023-04-10T21:47:57.013Z,982.1
2023-04-10T21:49:58.791Z,982.2
2023-04-10T21:54:01.814Z,982
2023-04-10T21:58:04.138Z,982
2023-04-10T22:00:05.727Z,982
2023-04-10T22:04:08.121Z,981.8
2023-04-10T22:06:09.303Z,981.8
2023-04-10T22:10:12.517Z,981.8
2023-04-10T22:14:17.412Z,981.8
2023-04-10T22:16:24.587Z,981.8
2023-04-10T22:20:18.611Z,981.7
2023-04-10T22:24:21.374Z,981.5
2023-04-10T22:26:22.985Z,981.5
2023-04-10T22:30:25.613Z,981.4
2023-04-10T22:32:27.175Z,981.3
2023-04-10T22:34:28.493Z,981.4
2023-04-10T22:36:29.383Z,981.3
2023-04-10T22:40:31.753Z,981.2
2023-04-10T22:42:32.964Z,981
2023-04-10T22:44:34.113Z,980.9
2023-04-10T22:46:35.686Z,980.6
2023-04-10T22:48:37.203Z,980.4
2023-04-10T22:52:40.773Z,980.3
2023-04-10T22:54:41.811Z,980.3
2023-04-10T22:56:43.266Z,980.3
2023-04-10T22:59:28.462Z,980.4
2023-04-10T23:03:30.744Z,980.3
2023-04-10T23:07:32.783Z,980.3
2023-04-10T23:09:34.653Z,980.5
2023-04-10T23:13:37.917Z,980.5
2023-04-10T23:17:39.920Z,980.5
2023-04-10T23:19:41.749Z,980.5
2023-04-10T23:23:44.422Z,980.5
2023-04-10T23:25:46.103Z,980.4
2023-04-10T23:29:49.231Z,980.3
2023-04-10T23:33:52.321Z,980.3
2023-04-10T23:35:53.807Z,980.3
2023-04-10T23:39:57.232Z,980.1
2023-04-10T23:41:58.188Z,980.2
2023-04-10T23:46:00.807Z,980.1
2023-04-10T23:50:03.013Z,980.2
2023-04-10T23:52:04.525Z,980.2
2023-04-10T23:56:06.944Z,980.2
